Corte Madera (442) Station Data

Red Flag Warning: No
Fire Weather Zone: 258
SDGE Region: Mountain Empire
Lat/Lon: 32.783/-116.55

Observations

Time Wind Speed/Gust Temp(F) RH Fuel Moist Fuel Temp(F) Dewpt(F) Tmax(F) Tmin(F) Accum Precip 10-min Precip SL Press(mb)
3/29 8:00am 273 3 G 5 58° 16% - - 12° 57.9° 46.3° - - -
3/29 7:50am 226 2 G 4 57° 15% - - 10° 57.9° 46.3° - - -
3/29 7:40am 200 3 G 4 55° 16% - - 57.9° 46.3° - - -
3/29 7:30am 119 3 G 4 56° 16% - - 10° 57.9° 46.3° - - -
3/29 7:20am 79 5 G 10 56° 17% - - 11° 57.9° 46.3° - - -
3/29 7:10am 83 2 G 6 56° 15% - - 57.7° 46.3° - - -
3/29 7:00am 75 4 G 9 55° 16% - - 56.8° 46.3° - - -
3/29 6:50am 104 3 G 7 54° 17% - - 10° 56.8° 46.3° - - -
3/29 6:40am 85 3 G 8 55° 16% - - 56.8° 46.3° - - -
3/29 6:30am 49 6 G 11 56° 15% - - 56.8° 46.3° - - -
3/29 6:20am 49 8 G 12 56° 14% - - 56.8° 46.3° - - -
3/29 6:10am 26 7 G 9 55° 15% - - 56.7° 46.3° - - -
3/29 6:00am 57 5 G 10 54° 15% - - 56.7° 46.3° - - -
3/29 5:50am 123 1 G 2 54° 15% - - 56.7° 46.3° - - -
3/29 5:40am 181 1 G 2 54° 15% - - 56.7° 46.3° - - -
3/29 5:30am 139 3 G 4 54° 16% - - 56.7° 46.3° - - -
3/29 5:20am 148 3 G 5 53° 16% - - 56.7° 46.3° - - -
3/29 5:10am 125 4 G 5 53° 16% - - 56.7° 46.3° - - -
3/29 5:00am 115 4 G 6 53° 17% - - 56.7° 46.3° - - -
3/29 4:50am 81 2 G 5 54° 16% - - 56.7° 46.3° - - -
3/29 4:40am 355 1 G 4 53° 17% - - 56.7° 46.3° - - -
3/29 4:30am 198 3 G 4 54° 16% - - 56.7° 46.3° - - -
3/29 4:20am 167 2 G 5 53° 17% - - 56.7° 46.3° - - -
3/29 4:10am 345 2 G 4 55° 15% - - 56.7° 46.3° - - -
3/29 4:00am 25 3 G 5 56° 14% - - 56.7° 46.3° - - -
3/29 3:50am 27 1 G 3 56° 15% - - 56.4° 46.3° - - -
3/29 3:40am 34 2 G 5 56° 14% - - 56.4° 46.3° - - -
3/29 3:30am 174 2 G 4 55° 15% - - 56.4° 46.3° - - -
3/29 3:20am 177 2 G 4 54° 16% - - 56.4° 46.3° - - -
3/29 3:10am 199 1 G 2 53° 16% - - 56.4° 46.3° - - -
3/29 3:00am 195 1 G 3 53° 17% - - 56.4° 46.3° - - -
3/29 2:50am 238 2 G 4 53° 17% - - 56.4° 46.3° - - -
3/29 2:40am 19 2 G 4 56° 14% - - 56.4° 46.3° - - -
3/29 2:30am 56 1 G 4 55° 15% - - 55.7° 46.3° - - -
3/29 2:20am 143 2 G 6 54° 16% - - 54.9° 46.3° - - -
3/29 2:10am 206 2 G 4 51° 18% - - 10° 54.9° 46.3° - - -
3/29 2:00am 209 3 G 6 50° 20% - - 11° 54.9° 46.3° - - -
3/29 1:50am 290 2 G 4 52° 19% - - 10° 54.9° 46.3° - - -
3/29 1:40am 18 4 G 6 54° 15% - - 54.9° 46.3° - - -
3/29 1:30am 23 3 G 5 50° 20% - - 10° 54.5° 46.3° - - -
3/29 1:20am 340 2 G 4 48° 26% - - 15° 54.5° 46.3° - - -
3/29 1:10am 318 3 G 4 48° 25% - - 14° 54.5° 46.3° - - -
3/29 1:00am 338 3 G 5 49° 25% - - 14° 54.5° 46.3° - - -
3/29 12:50am 277 2 G 4 49° 25% - - 14° 54.5° 46.3° - - -
3/29 12:40am 73 3 G 5 52° 19% - - 11° 54.5° 46.3° - - -
3/29 12:30am 52 1 G 2 48° 26% - - 15° 50.1° 46.3° - - -
3/29 12:20am 310 1 G 3 47° 33% - - 20° 47.6° 46.3° - - -
3/29 12:10am 327 2 G 2 47° 36% - - 21° 47.1° 46.3° - - -
3/29 12:00am 302 1 G 3 46° 40% - - 23° 65.8° 38.7° - - -
3/28 11:50pm 316 0 G 2 47° 41% - - 24° 65.8° 38.7° - - -
3/28 11:40pm 314 1 G 2 47° 39% - - 24° 65.8° 38.7° - - -
3/28 11:30pm 309 1 G 2 48° 37% - - 23° 65.8° 38.7° - - -
3/28 11:20pm 333 1 G 2 47° 42% - - 25° 65.8° 38.7° - - -
3/28 11:10pm 312 2 G 3 47° 47% - - 28° 65.8° 38.7° - - -
3/28 11:00pm 282 0 G 2 46° 50% - - 29° 65.8° 38.7° - - -
3/28 10:50pm 249 2 G 3 46° 60% - - 33° 65.8° 38.7° - - -
3/28 10:40pm 348 2 G 3 46° 61% - - 34° 65.8° 38.7° - - -
3/28 10:30pm 293 1 G 2 46° 67% - - 36° 65.8° 38.7° - - -
3/28 10:20pm 316 2 G 3 48° 65% - - 37° 65.8° 38.7° - - -
3/28 10:10pm 323 1 G 2 48° 69% - - 38° 65.8° 38.7° - - -
3/28 10:00pm 271 1 G 2 48° 69% - - 39° 65.8° 38.7° - - -
3/28 9:50pm 231 1 G 2 48° 70% - - 39° 65.8° 38.7° - - -
3/28 9:40pm 306 1 G 3 49° 69% - - 39° 65.8° 38.7° - - -
3/28 9:30pm 215 1 G 2 48° 70% - - 39° 65.8° 38.7° - - -
3/28 9:20pm 329 2 G 4 49° 68% - - 39° 65.8° 38.7° - - -
3/28 9:10pm 303 2 G 2 48° 69% - - 39° 65.8° 38.7° - - -
3/28 9:00pm 352 2 G 3 49° 68% - - 39° 65.8° 38.7° - - -
3/28 8:50pm 273 2 G 3 49° 68% - - 39° 65.8° 38.7° - - -
3/28 8:40pm 249 1 G 2 50° 65% - - 39° 65.8° 38.7° - - -
3/28 8:30pm 280 1 G 3 50° 64% - - 39° 65.8° 38.7° - - -
3/28 8:20pm 12 3 G 6 51° 65% - - 39° 65.8° 38.7° - - -
3/28 8:10pm 330 2 G 6 50° 65% - - 39° 65.8° 38.7° - - -
3/28 8:00pm 37 3 G 6 50° 67% - - 39° 65.8° 38.7° - - -
3/28 7:50pm 238 1 G 5 50° 66% - - 39° 65.8° 38.7° - - -
3/28 7:40pm 16 5 G 7 51° 64% - - 40° 65.8° 38.7° - - -
3/28 7:30pm 27 3 G 5 52° 64% - - 40° 65.8° 38.7° - - -
3/28 7:20pm 353 4 G 6 52° 63% - - 40° 65.8° 38.7° - - -
3/28 7:10pm 328 4 G 8 53° 62% - - 40° 65.8° 38.7° - - -
3/28 7:00pm 308 6 G 9 53° 61% - - 40° 65.8° 38.7° - - -
3/28 6:50pm 296 6 G 10 54° 59% - - 40° 65.8° 38.7° - - -
3/28 6:40pm 288 7 G 12 55° 58% - - 40° 65.8° 38.7° - - -
3/28 6:30pm 283 9 G 13 55° 56% - - 40° 65.8° 38.7° - - -
3/28 6:20pm 284 8 G 14 56° 56% - - 40° 65.8° 38.7° - - -
3/28 6:10pm 286 9 G 15 56° 54% - - 40° 65.8° 38.7° - - -
3/28 6:00pm 296 11 G 16 57° 54% - - 40° 65.8° 38.7° - - -
3/28 5:50pm 290 12 G 18 57° 53% - - 40° 65.8° 38.7° - - -
3/28 5:40pm 287 12 G 17 58° 51% - - 40° 65.8° 38.7° - - -
3/28 5:30pm 287 10 G 16 59° 49% - - 40° 65.8° 38.7° - - -
3/28 5:20pm 294 12 G 18 59° 47% - - 39° 65.8° 38.7° - - -
3/28 5:10pm 294 11 G 17 60° 45% - - 38° 65.8° 38.7° - - -
3/28 5:00pm 292 10 G 15 61° 39% - - 36° 65.8° 38.7° - - -
3/28 4:50pm 295 8 G 15 61° 36% - - 34° 65.8° 38.7° - - -
3/28 4:40pm 295 8 G 17 62° 32% - - 32° 65.8° 38.7° - - -
3/28 4:30pm 269 9 G 15 62° 30% - - 31° 65.8° 38.7° - - -
3/28 4:20pm 269 8 G 15 63° 29% - - 30° 65.8° 38.7° - - -
3/28 4:10pm 288 8 G 14 63° 28% - - 29° 65.8° 38.7° - - -
3/28 4:00pm 258 5 G 14 64° 27% - - 30° 65.8° 38.7° - - -
3/28 3:50pm 280 5 G 9 63° 28% - - 29° 64.1° 38.7° - - -
3/28 3:40pm 289 7 G 14 63° 28% - - 29° 64° 38.7° - - -
3/28 3:30pm 279 5 G 10 62° 28% - - 29° 63.5° 38.7° - - -
3/28 3:20pm 277 7 G 12 61° 29% - - 29° 63.5° 38.7° - - -
3/28 3:10pm 255 8 G 13 62° 28% - - 29° 63.5° 38.7° - - -
3/28 3:00pm 280 6 G 12 62° 27% - - 28° 63.5° 38.7° - - -
3/28 2:50pm 269 9 G 14 61° 28% - - 28° 62.7° 38.7° - - -
3/28 2:40pm 295 9 G 14 62° 27% - - 27° 62.7° 38.7° - - -
3/28 2:30pm 304 7 G 13 62° 26% - - 27° 62.5° 38.7° - - -
3/28 2:20pm 291 6 G 14 61° 27% - - 27° 62.2° 38.7° - - -
3/28 2:10pm 288 9 G 14 61° 28% - - 27° 62° 38.7° - - -
3/28 2:00pm 268 8 G 13 61° 29% - - 29° 62° 38.7° - - -
3/28 1:50pm 240 7 G 17 61° 29% - - 28° 61.4° 38.7° - - -
3/28 1:40pm 264 9 G 15 60° 30% - - 29° 61.4° 38.7° - - -
3/28 1:30pm 285 7 G 14 60° 30% - - 29° 61.3° 38.7° - - -
3/28 1:20pm 254 9 G 13 60° 31% - - 29° 61.3° 38.7° - - -
3/28 1:10pm 264 9 G 19 59° 31% - - 29° 61.3° 38.7° - - -
3/28 1:00pm 282 10 G 18 60° 28% - - 27° 61.3° 38.7° - - -
3/28 12:50pm 277 8 G 16 60° 27% - - 26° 61.3° 38.7° - - -
3/28 12:40pm 274 10 G 16 60° 27% - - 26° 61.3° 38.7° - - -
3/28 12:30pm 272 11 G 17 60° 28% - - 26° 61.3° 38.7° - - -
3/28 12:20pm 291 9 G 15 60° 23% - - 22° 61.3° 38.7° - - -
3/28 12:10pm 282 9 G 14 59° 23% - - 21° 61.3° 38.7° - - -
3/28 12:00pm 295 9 G 14 59° 24% - - 23° 61.3° 38.7° - - -
3/28 11:50am 300 6 G 11 59° 21% - - 19° 61.3° 38.7° - - -
3/28 11:40am 307 9 G 15 59° 23% - - 21° 61.3° 38.7° - - -
3/28 11:30am 298 10 G 16 59° 23% - - 22° 61.3° 38.7° - - -
3/28 11:20am 339 7 G 14 60° 17% - - 14° 61.3° 38.7° - - -
3/28 11:10am 14 6 G 13 60° 13% - - 61.3° 38.7° - - -
3/28 11:00am 355 6 G 12 61° 13% - - 10° 61.3° 38.7° - - -
3/28 10:50am 12 7 G 13 60° 13% - - 61° 38.7° - - -
3/28 10:40am 348 8 G 14 60° 14% - - 10° 60.6° 38.7° - - -
3/28 10:30am 353 7 G 13 60° 14% - - 10° 60.6° 38.7° - - -
3/28 10:20am 356 7 G 13 59° 15% - - 11° 60.1° 38.7° - - -
3/28 10:10am 354 9 G 17 59° 14% - - 10° 59.1° 38.7° - - -
3/28 10:00am 353 7 G 13 58° 15% - - 10° 58.6° 38.7° - - -
3/28 9:50am 357 9 G 14 58° 15% - - 10° 58.1° 38.7° - - -
3/28 9:40am 9 8 G 14 57° 15% - - 10° 57.9° 38.7° - - -
3/28 9:30am 7 7 G 14 57° 17% - - 12° 57.9° 38.7° - - -
3/28 9:20am 2 7 G 12 56° 18% - - 13° 56.8° 38.7° - - -
3/28 9:10am 356 8 G 13 55° 19% - - 14° 56.1° 38.7° - - -
3/28 9:00am 353 9 G 17 54° 20% - - 14° 54.9° 38.7° - - -
3/28 8:50am 357 8 G 13 54° 22% - - 15° 54.3° 38.7° - - -
3/28 8:40am 350 7 G 12 53° 24% - - 17° 53.6° 38.7° - - -
3/28 8:30am 349 6 G 11 52° 24% - - 17° 52.8° 38.7° - - -
3/28 8:20am 344 4 G 8 52° 24% - - 16° 52.3° 38.7° - - -
3/28 8:10am 330 3 G 5 51° 24% - - 16° 51.2° 38.7° - - -
3/28 8:00am 2 3 G 6 50° 25% - - 16° 50.6° 38.7° - - -
3/28 7:50am 28 5 G 11 49° 24% - - 14° 50.3° 38.7° - - -
3/28 7:40am 36 6 G 7 49° 23% - - 13° 50.3° 38.7° - - -
3/28 7:30am 16 4 G 6 49° 22% - - 12° 50.3° 38.7° - - -
3/28 7:20am 4 3 G 5 50° 21% - - 12° 50.3° 38.7° - - -
3/28 7:10am 292 2 G 3 49° 22% - - 12° 50.3° 38.7° - - -
3/28 7:00am 287 1 G 4 48° 24% - - 13° 50.3° 38.7° - - -
3/28 6:50am 244 3 G 5 48° 25% - - 13° 50.3° 38.7° - - -
3/28 6:40am 24 4 G 9 50° 22% - - 12° 50.3° 38.7° - - -
3/28 6:30am 47 7 G 12 50° 21% - - 12° 50.3° 38.7° - - -
3/28 6:20am 48 8 G 14 49° 24% - - 14° 49.9° 38.7° - - -
3/28 6:10am 21 5 G 8 47° 29% - - 16° 48.3° 38.7° - - -
3/28 6:00am 37 7 G 11 48° 28% - - 17° 48.3° 38.7° - - -